Time;durP1;ratioP1;P1;durP2;ratioP2;P2;SDS_P1;SDS_P2;PMS_P1;PMS_P2;Temp;Humidity;BMP_temperature;BMP_pressure;BME280_temperature;BME280_humidity;BME280_pressure;Samples;Min_cycle;Max_cycle;Signal;HPM_P1;HPM_P2
2021/12/04 00:00:21;;;;;;;15.60;8.18;;;;;;;;;;2076137;28;20041;-78
2021/12/04 00:01:41;;;;;;;13.52;7.45;;;;;;;;;;2075568;28;20045;-77
2021/12/04 00:03:00;;;;;;;11.88;7.47;;;;;;;;;;2077434;28;20765;-78
2021/12/04 00:04:23;;;;;;;14.43;7.45;;;;;;;;;;2076373;28;20520;-77
2021/12/04 00:05:48;;;;;;;;;;;;;;;;;;2076860;28;20041;-78
2021/12/04 00:07:08;;;;;;;10.68;7.25;;;;;;;;;;2077121;28;19913;-77
2021/12/04 00:08:28;;;;;;;12.38;8.35;;;;;;;;;;2076331;28;21342;-77
2021/12/04 00:09:50;;;;;;;16.05;6.85;;;;;;;;;;2072106;28;20489;-78
2021/12/04 00:11:09;;;;;;;12.98;7.55;;;;;;;;;;2076382;28;20402;-78
2021/12/04 00:12:30;;;;;;;13.18;7.40;;;;;;;;;;2076272;28;20049;-78
2021/12/04 00:13:49;;;;;;;16.92;7.45;;;;;;;;;;2076806;28;20648;-78
2021/12/04 00:15:08;;;;;;;12.68;7.63;;;;;;;;;;2076663;28;20037;-78
2021/12/04 00:16:27;;;;;;;14.05;7.25;;;;;;;;;;2077549;28;20021;-78
2021/12/04 00:17:46;;;;;;;11.65;7.72;;;;;;;;;;2076210;28;20160;-78
2021/12/04 00:19:05;;;;;;;16.35;7.63;;;;;;;;;;2075011;28;20521;-78
2021/12/04 00:20:24;;;;;;;13.40;7.97;;;;;;;;;;2076743;28;20037;-78
2021/12/04 00:21:43;;;;;;;10.45;6.95;;;;;;;;;;2076845;28;20026;-78
2021/12/04 00:23:02;;;;;;;15.45;7.65;;;;;;;;;;2074460;28;21555;-78
2021/12/04 00:24:22;;;;;;;12.10;7.07;;;;;;;;;;2073872;28;20404;-78
2021/12/04 00:25:41;;;;;;;12.60;7.50;;;;;;;;;;2075984;28;20050;-77
2021/12/04 00:26:59;;;;;;;11.65;7.65;;;;;;;;;;2076106;28;20052;-78
2021/12/04 00:28:18;;;;;;;15.45;7.60;;;;;;;;;;2077948;28;20037;-77
2021/12/04 00:29:37;;;;;;;14.63;8.23;;;;;;;;;;2075680;28;20049;-77
2021/12/04 00:30:56;;;;;;;14.77;7.15;;;;;;;;;;2077523;28;20038;-77
2021/12/04 00:32:54;;;;;;;12.73;7.25;;;;;;;;;;2074393;28;20026;-78
2021/12/04 00:34:02;;;;;;;12.73;7.20;;;;;;;;;;2078399;28;20042;-78
2021/12/04 00:36:09;;;;;;;14.77;7.75;;;;;;;;;;2077273;28;20041;-77
2021/12/04 00:50:05;;;;;;;17.42;8.05;;;;;;;;;;2067604;28;20489;-78
2021/12/04 00:51:24;;;;;;;12.05;8.23;;;;;;;;;;2076408;28;20041;-77
2021/12/04 00:52:43;;;;;;;16.10;8.18;;;;;;;;;;2077000;28;20025;-78
2021/12/04 00:54:05;;;;;;;10.60;7.18;;;;;;;;;;2076290;28;20030;-77
2021/12/04 00:55:24;;;;;;;16.73;7.75;;;;;;;;;;2081434;28;20045;-77
2021/12/04 00:56:43;;;;;;;14.70;8.05;;;;;;;;;;2076779;28;20513;-77
2021/12/04 00:58:03;;;;;;;12.25;7.35;;;;;;;;;;2076346;28;20037;-77
2021/12/04 00:59:23;;;;;;;16.92;9.30;;;;;;;;;;2077296;28;20038;-78
2021/12/04 01:00:43;;;;;;;13.95;7.70;;;;;;;;;;2073102;28;20029;-78
2021/12/04 01:02:02;;;;;;;12.30;7.35;;;;;;;;;;2073091;28;20514;-78
2021/12/04 01:03:21;;;;;;;12.60;7.53;;;;;;;;;;2073699;28;20053;-77
2021/12/04 01:04:40;;;;;;;16.08;7.72;;;;;;;;;;2072148;28;20457;-78
2021/12/04 01:05:59;;;;;;;12.75;7.82;;;;;;;;;;2076504;28;20037;-78
2021/12/04 01:07:20;;;;;;;15.13;7.93;;;;;;;;;;2074851;28;20045;-77
2021/12/04 01:08:39;;;;;;;18.02;8.40;;;;;;;;;;2075922;28;20037;-78
2021/12/04 01:09:57;;;;;;;15.25;8.23;;;;;;;;;;2075255;28;20683;-78
2021/12/04 01:11:16;;;;;;;14.07;8.07;;;;;;;;;;2075812;28;20033;-77
2021/12/04 01:12:35;;;;;;;14.25;7.47;;;;;;;;;;2076821;28;20073;-78
2021/12/04 01:13:54;;;;;;;19.42;8.27;;;;;;;;;;2075545;28;20025;-78
2021/12/04 01:15:13;;;;;;;16.98;8.70;;;;;;;;;;2080784;28;20029;-78
2021/12/04 01:16:32;;;;;;;17.98;8.60;;;;;;;;;;2084011;28;20474;-77
2021/12/04 01:17:51;;;;;;;13.70;7.10;;;;;;;;;;2080216;28;20025;-78
2021/12/04 01:19:10;;;;;;;13.52;7.45;;;;;;;;;;2085502;28;20043;-77
2021/12/04 01:20:29;;;;;;;16.40;8.07;;;;;;;;;;2075088;28;20038;-77
2021/12/04 01:21:49;;;;;;;14.38;8.27;;;;;;;;;;2075920;28;20033;-77
2021/12/04 01:23:08;;;;;;;15.48;8.25;;;;;;;;;;2081678;28;20489;-78
2021/12/04 01:24:27;;;;;;;13.27;7.45;;;;;;;;;;2077336;28;20034;-77
2021/12/04 01:25:46;;;;;;;18.75;8.90;;;;;;;;;;2075204;28;20069;-78
2021/12/04 01:27:07;;;;;;;15.38;7.53;;;;;;;;;;2080776;28;20041;-78
2021/12/04 01:28:26;;;;;;;16.30;7.82;;;;;;;;;;2075618;28;20061;-77
2021/12/04 01:29:45;;;;;;;17.45;8.60;;;;;;;;;;2075284;28;20033;-77
2021/12/04 01:31:05;;;;;;;16.60;7.95;;;;;;;;;;2073395;28;20033;-78
2021/12/04 01:32:24;;;;;;;14.43;7.57;;;;;;;;;;2072760;28;20474;-77
2021/12/04 01:33:42;;;;;;;15.90;7.63;;;;;;;;;;2073621;28;20124;-77
2021/12/04 01:35:01;;;;;;;22.42;8.02;;;;;;;;;;2073153;28;20029;-78
2021/12/04 01:36:20;;;;;;;15.80;8.15;;;;;;;;;;2072954;28;20034;-78
2021/12/04 01:37:39;;;;;;;17.25;7.82;;;;;;;;;;2073122;28;20033;-78
2021/12/04 01:38:58;;;;;;;15.73;7.43;;;;;;;;;;2071104;28;20022;-78
2021/12/04 01:40:18;;;;;;;17.05;7.93;;;;;;;;;;2073238;28;21386;-78
2021/12/04 01:41:37;;;;;;;16.52;8.40;;;;;;;;;;2072990;28;20033;-78
2021/12/04 01:42:56;;;;;;;14.63;7.95;;;;;;;;;;2073554;28;20034;-77
2021/12/04 01:44:15;;;;;;;18.58;8.43;;;;;;;;;;2079687;28;20115;-77
2021/12/04 01:45:34;;;;;;;14.27;7.75;;;;;;;;;;2078100;28;20104;-78
2021/12/04 01:46:56;;;;;;;15.40;8.30;;;;;;;;;;2080134;28;20504;-77
2021/12/04 01:48:15;;;;;;;20.33;9.07;;;;;;;;;;2077215;28;20037;-77
2021/12/04 01:49:33;;;;;;;16.08;7.93;;;;;;;;;;2076114;28;20021;-77
2021/12/04 01:50:54;;;;;;;15.68;8.32;;;;;;;;;;2079023;28;20033;-78
2021/12/04 01:52:15;;;;;;;14.32;9.15;;;;;;;;;;2080296;28;20120;-78
2021/12/04 01:53:34;;;;;;;17.77;7.82;;;;;;;;;;2079228;28;20049;-77
2021/12/04 01:54:53;;;;;;;15.07;8.18;;;;;;;;;;2080205;28;20026;-77
2021/12/04 01:56:12;;;;;;;14.45;7.78;;;;;;;;;;2078346;28;20037;-77
2021/12/04 01:57:31;;;;;;;14.48;7.43;;;;;;;;;;2069928;28;20236;-78
2021/12/04 01:58:53;;;;;;;15.60;7.55;;;;;;;;;;2076056;28;20486;-78
2021/12/04 02:00:12;;;;;;;17.17;8.00;;;;;;;;;;2079087;28;20041;-77
2021/12/04 02:01:32;;;;;;;18.08;8.75;;;;;;;;;;2078986;28;20030;-77
2021/12/04 02:02:51;;;;;;;16.65;8.38;;;;;;;;;;2078088;28;20029;-78
2021/12/04 02:04:10;;;;;;;17.45;8.55;;;;;;;;;;2080052;28;20033;-77
2021/12/04 02:05:29;;;;;;;13.65;7.63;;;;;;;;;;2078962;28;20041;-77
2021/12/04 02:06:48;;;;;;;14.23;8.07;;;;;;;;;;2078618;28;20140;-77
2021/12/04 02:08:08;;;;;;;14.07;7.70;;;;;;;;;;2080588;28;20033;-77
2021/12/04 02:09:27;;;;;;;17.30;7.47;;;;;;;;;;2078956;28;20030;-77
2021/12/04 02:10:47;;;;;;;14.27;7.97;;;;;;;;;;2075833;28;20041;-77
2021/12/04 02:12:07;;;;;;;12.73;7.00;;;;;;;;;;2076269;28;20045;-77
2021/12/04 02:13:26;;;;;;;12.32;7.32;;;;;;;;;;2076144;28;20498;-77
2021/12/04 02:14:45;;;;;;;14.70;8.13;;;;;;;;;;2079312;28;20033;-77
2021/12/04 02:16:17;;;;;;;16.38;8.25;;;;;;;;;;2078263;28;20410;-77
2021/12/04 02:17:36;;;;;;;16.67;8.35;;;;;;;;;;2077490;28;20080;-77
2021/12/04 02:18:55;;;;;;;13.00;7.45;;;;;;;;;;2079501;28;20029;-77
2021/12/04 02:20:18;;;;;;;13.80;7.90;;;;;;;;;;2071520;28;20057;-77
2021/12/04 02:21:37;;;;;;;16.60;8.15;;;;;;;;;;2075094;28;20060;-77
2021/12/04 02:22:56;;;;;;;13.60;7.60;;;;;;;;;;2079153;28;20034;-77
2021/12/04 02:24:15;;;;;;;13.73;7.72;;;;;;;;;;2079403;28;20033;-77
2021/12/04 02:25:35;;;;;;;15.35;7.40;;;;;;;;;;2075879;28;20064;-77
2021/12/04 02:26:54;;;;;;;11.23;7.00;;;;;;;;;;2074352;28;20517;-77
2021/12/04 02:28:13;;;;;;;16.27;7.32;;;;;;;;;;2079072;28;20493;-78
2021/12/04 02:29:32;;;;;;;12.68;7.20;;;;;;;;;;2076624;28;20057;-77
2021/12/04 02:30:51;;;;;;;13.57;7.50;;;;;;;;;;2075246;28;20034;-77
2021/12/04 02:32:10;;;;;;;15.73;7.65;;;;;;;;;;2078873;28;20472;-77
2021/12/04 02:33:29;;;;;;;13.00;7.53;;;;;;;;;;2078356;28;20441;-77
2021/12/04 02:34:48;;;;;;;12.77;7.38;;;;;;;;;;2075590;28;20029;-77
2021/12/04 02:36:07;;;;;;;13.07;7.68;;;;;;;;;;2078244;28;20382;-78
2021/12/04 02:37:26;;;;;;;13.45;7.00;;;;;;;;;;2079235;28;20424;-77
2021/12/04 02:38:54;;;;;;;13.23;7.28;;;;;;;;;;2077089;28;20033;-77
2021/12/04 02:40:14;;;;;;;13.35;7.32;;;;;;;;;;2080288;28;20034;-77
2021/12/04 02:41:33;;;;;;;12.52;7.13;;;;;;;;;;2080587;28;20582;-77
2021/12/04 02:42:52;;;;;;;16.17;6.45;;;;;;;;;;2081074;28;20089;-77
2021/12/04 02:44:11;;;;;;;16.45;6.97;;;;;;;;;;2081330;28;20037;-78
2021/12/04 02:45:30;;;;;;;10.43;7.22;;;;;;;;;;2079160;28;20033;-78
2021/12/04 02:46:48;;;;;;;12.75;7.38;;;;;;;;;;2076976;28;20050;-78
2021/12/04 02:48:07;;;;;;;10.55;6.68;;;;;;;;;;2081389;28;20069;-78
2021/12/04 02:49:26;;;;;;;12.05;6.90;;;;;;;;;;2081353;28;20037;-78
2021/12/04 02:50:46;;;;;;;12.20;7.20;;;;;;;;;;2081086;28;20061;-77
2021/12/04 02:52:05;;;;;;;12.60;6.78;;;;;;;;;;2076336;28;20436;-78
2021/12/04 02:53:24;;;;;;;9.77;6.80;;;;;;;;;;2084013;28;20025;-78
2021/12/04 02:54:44;;;;;;;15.82;7.35;;;;;;;;;;2081194;28;20026;-78
2021/12/04 02:56:06;;;;;;;10.05;5.97;;;;;;;;;;2077936;28;20025;-77
2021/12/04 02:57:26;;;;;;;14.45;6.65;;;;;;;;;;2084135;28;20025;-78
2021/12/04 02:58:50;;;;;;;10.27;7.13;;;;;;;;;;2080617;28;20473;-77
2021/12/04 03:00:10;;;;;;;11.40;6.47;;;;;;;;;;2086398;28;20028;-77
2021/12/04 03:01:29;;;;;;;11.52;6.10;;;;;;;;;;2081037;28;20397;-77
2021/12/04 03:02:48;;;;;;;11.18;6.13;;;;;;;;;;2081277;28;20755;-77
2021/12/04 03:04:09;;;;;;;11.55;6.40;;;;;;;;;;2081987;28;20065;-77
2021/12/04 03:05:28;;;;;;;10.55;6.22;;;;;;;;;;2079293;28;20041;-77
2021/12/04 03:06:47;;;;;;;9.40;7.22;;;;;;;;;;2085903;28;20037;-77
2021/12/04 03:08:07;;;;;;;14.00;7.00;;;;;;;;;;2080721;28;20033;-77
2021/12/04 03:09:26;;;;;;;12.93;6.65;;;;;;;;;;2080340;28;20041;-77
2021/12/04 03:10:47;;;;;;;10.60;6.47;;;;;;;;;;2076233;28;20084;-77
2021/12/04 03:12:07;;;;;;;12.50;6.72;;;;;;;;;;2077083;28;20041;-76
2021/12/04 03:13:26;;;;;;;12.93;7.10;;;;;;;;;;2080928;28;20166;-77
2021/12/04 03:14:45;;;;;;;9.55;6.65;;;;;;;;;;2081992;28;20033;-77
2021/12/04 03:16:04;;;;;;;11.35;6.47;;;;;;;;;;2079030;28;20053;-77
2021/12/04 03:17:25;;;;;;;8.70;6.35;;;;;;;;;;2085025;28;20508;-77
2021/12/04 03:18:45;;;;;;;12.95;7.18;;;;;;;;;;2080979;28;20038;-77
2021/12/04 03:20:04;;;;;;;12.32;6.72;;;;;;;;;;2081318;28;20057;-77
2021/12/04 03:21:23;;;;;;;11.63;6.13;;;;;;;;;;2087818;28;20029;-78
2021/12/04 03:22:44;;;;;;;10.70;6.00;;;;;;;;;;2082004;28;20482;-77
2021/12/04 03:24:07;;;;;;;8.80;6.50;;;;;;;;;;2081045;28;20041;-77
2021/12/04 03:25:26;;;;;;;9.23;6.22;;;;;;;;;;2080738;28;20041;-77
2021/12/04 03:26:47;;;;;;;10.88;5.80;;;;;;;;;;2081177;28;20038;-77
2021/12/04 03:28:08;;;;;;;12.45;6.47;;;;;;;;;;2079012;28;20029;-77
2021/12/04 03:29:28;;;;;;;10.40;6.47;;;;;;;;;;2080405;28;20504;-77
2021/12/04 03:30:56;;;;;;;7.57;5.75;;;;;;;;;;2076915;28;20045;-77
2021/12/04 03:41:44;;;;;;;7.88;5.82;;;;;;;;;;2081196;28;20041;-77
2021/12/04 03:43:05;;;;;;;10.27;6.28;;;;;;;;;;2079509;28;20037;-78
2021/12/04 03:44:24;;;;;;;9.38;6.53;;;;;;;;;;2080210;28;20029;-77
2021/12/04 03:45:46;;;;;;;8.52;6.07;;;;;;;;;;2080241;28;20042;-77
2021/12/04 03:47:05;;;;;;;7.95;5.55;;;;;;;;;;2076541;28;20485;-77
2021/12/04 03:49:50;;;;;;;9.60;6.40;;;;;;;;;;2079732;28;20445;-77
2021/12/04 03:51:10;;;;;;;13.25;6.40;;;;;;;;;;2079392;28;20029;-77
2021/12/04 03:52:29;;;;;;;10.05;6.53;;;;;;;;;;2084316;28;20037;-77
2021/12/04 03:53:48;;;;;;;11.43;6.63;;;;;;;;;;2079741;28;20033;-78
2021/12/04 03:55:08;;;;;;;9.90;6.22;;;;;;;;;;2080931;28;20505;-77
2021/12/04 03:56:28;;;;;;;10.18;5.93;;;;;;;;;;2080503;28;20037;-77
2021/12/04 03:57:47;;;;;;;10.50;6.97;;;;;;;;;;2071950;28;20473;-77
2021/12/04 03:59:07;;;;;;;9.45;5.72;;;;;;;;;;2074728;28;20033;-78
2021/12/04 04:00:28;;;;;;;8.20;6.15;;;;;;;;;;2075869;28;20030;-77
2021/12/04 04:01:47;;;;;;;14.02;6.50;;;;;;;;;;2076939;28;20069;-77
2021/12/04 04:03:06;;;;;;;10.73;6.35;;;;;;;;;;2076530;28;20518;-77
2021/12/04 04:04:25;;;;;;;8.27;5.93;;;;;;;;;;2076166;28;20045;-77
2021/12/04 04:05:44;;;;;;;10.80;6.38;;;;;;;;;;2076335;28;20513;-77
2021/12/04 04:07:02;;;;;;;8.63;5.88;;;;;;;;;;2077108;28;20065;-77
2021/12/04 04:08:21;;;;;;;10.73;6.28;;;;;;;;;;2076374;28;20037;-77
2021/12/04 04:09:41;;;;;;;12.13;6.68;;;;;;;;;;2077552;28;20029;-77
2021/12/04 04:11:00;;;;;;;16.98;6.88;;;;;;;;;;2078829;28;20104;-77
2021/12/04 04:12:19;;;;;;;9.30;5.97;;;;;;;;;;2079495;28;20045;-77
2021/12/04 04:13:41;;;;;;;12.48;6.40;;;;;;;;;;2078987;28;20061;-76
2021/12/04 04:15:00;;;;;;;;;;;;;;;;;;2081982;28;20029;-77
2021/12/04 04:16:20;;;;;;;14.90;7.68;;;;;;;;;;2078941;28;19913;-76
2021/12/04 04:17:44;;;;;;;9.18;6.65;;;;;;;;;;2079316;28;20417;-77
2021/12/04 04:19:03;;;;;;;10.00;6.00;;;;;;;;;;2078198;28;20029;-77
2021/12/04 04:20:23;;;;;;;11.70;6.93;;;;;;;;;;2072238;28;20483;-77
2021/12/04 04:21:42;;;;;;;7.72;5.85;;;;;;;;;;2082413;28;20037;-77
2021/12/04 04:23:00;;;;;;;12.23;6.65;;;;;;;;;;2078787;28;20109;-77
2021/12/04 04:24:19;;;;;;;11.68;6.38;;;;;;;;;;2080062;28;20131;-77
2021/12/04 04:25:38;;;;;;;11.82;6.40;;;;;;;;;;2079308;28;20457;-77
2021/12/04 04:26:57;;;;;;;8.98;6.15;;;;;;;;;;2081245;28;20041;-77
2021/12/04 04:28:16;;;;;;;12.23;6.07;;;;;;;;;;2083652;28;20041;-77
2021/12/04 04:29:36;;;;;;;9.52;5.93;;;;;;;;;;2079757;28;20033;-77
2021/12/04 04:30:54;;;;;;;11.43;6.30;;;;;;;;;;2080325;28;20033;-77
2021/12/04 04:32:13;;;;;;;12.10;5.75;;;;;;;;;;2076877;28;20025;-77
2021/12/04 04:33:36;;;;;;;11.68;7.10;;;;;;;;;;2075699;28;20762;-77
2021/12/04 04:34:57;;;;;;;8.98;6.60;;;;;;;;;;2079385;28;20029;-77
2021/12/04 04:36:37;;;;;;;9.57;5.80;;;;;;;;;;2076497;28;20140;-77
2021/12/04 04:57:37;;;;;;;8.23;6.07;;;;;;;;;;2080826;28;20056;-76
2021/12/04 04:59:26;;;;;;;13.20;6.78;;;;;;;;;;2077279;28;20104;-77
2021/12/04 05:11:38;;;;;;;16.20;7.80;;;;;;;;;;2080002;28;20033;-76
2021/12/04 05:13:00;;;;;;;10.10;6.40;;;;;;;;;;2079869;28;20041;-76
2021/12/04 05:14:19;;;;;;;7.63;5.22;;;;;;;;;;2077828;28;20034;-76
2021/12/04 05:17:14;;;;;;;7.60;5.82;;;;;;;;;;2078753;28;20394;-76
2021/12/04 05:18:36;;;;;;;10.30;5.97;;;;;;;;;;2070145;28;20039;-76
2021/12/04 05:19:56;;;;;;;;;;;;;;;;;;2074742;28;20409;-76
2021/12/04 05:21:15;;;;;;;9.35;5.90;;;;;;;;;;2076876;28;19909;-76
2021/12/04 05:22:34;;;;;;;11.13;6.13;;;;;;;;;;2075323;28;20025;-76
2021/12/04 05:23:54;;;;;;;12.75;7.32;;;;;;;;;;2080168;28;20057;-76
2021/12/04 05:25:13;;;;;;;7.80;5.50;;;;;;;;;;2079692;28;20033;-77
2021/12/04 05:26:32;;;;;;;6.93;5.53;;;;;;;;;;2079330;28;20029;-76
2021/12/04 05:27:51;;;;;;;7.63;5.78;;;;;;;;;;2079376;28;20025;-76
2021/12/04 05:29:10;;;;;;;14.63;6.82;;;;;;;;;;2078654;28;20547;-77
2021/12/04 05:30:29;;;;;;;9.02;6.15;;;;;;;;;;2078679;28;20037;-79
2021/12/04 05:31:49;;;;;;;12.50;5.90;;;;;;;;;;2076806;28;20033;-77
2021/12/04 05:33:08;;;;;;;8.88;5.78;;;;;;;;;;2079478;28;20034;-77
2021/12/04 05:34:27;;;;;;;10.23;5.75;;;;;;;;;;2079625;28;20037;-77
2021/12/04 05:35:48;;;;;;;8.32;6.38;;;;;;;;;;2079384;28;20390;-77
2021/12/04 05:37:07;;;;;;;9.10;6.30;;;;;;;;;;2079312;28;20064;-76
2021/12/04 05:38:26;;;;;;;9.55;6.35;;;;;;;;;;2079193;28;20029;-76
2021/12/04 05:39:45;;;;;;;8.52;5.97;;;;;;;;;;2078668;28;20029;-77
2021/12/04 05:41:04;;;;;;;8.25;5.50;;;;;;;;;;2079187;28;20030;-77
2021/12/04 05:42:23;;;;;;;11.07;5.93;;;;;;;;;;2076426;28;20018;-77
2021/12/04 05:43:42;;;;;;;9.95;5.63;;;;;;;;;;2075449;28;20022;-76
2021/12/04 05:45:01;;;;;;;10.57;5.80;;;;;;;;;;2078713;28;20140;-77
2021/12/04 05:46:23;;;;;;;8.75;5.88;;;;;;;;;;2079883;28;20541;-76
2021/12/04 05:47:47;;;;;;;7.55;5.82;;;;;;;;;;2076928;28;20045;-76
2021/12/04 05:53:56;;;;;;;11.30;5.88;;;;;;;;;;2079769;28;20025;-77
2021/12/04 05:55:18;;;;;;;8.15;5.15;;;;;;;;;;2079328;28;20515;-77
2021/12/04 05:56:37;;;;;;;8.43;5.53;;;;;;;;;;2078683;28;20073;-77
2021/12/04 05:57:55;;;;;;;8.07;5.53;;;;;;;;;;2079572;28;20021;-77
2021/12/04 05:59:14;;;;;;;9.23;5.65;;;;;;;;;;2079423;28;20021;-77
2021/12/04 06:00:33;;;;;;;6.30;5.53;;;;;;;;;;2073534;28;20030;-77
2021/12/04 06:01:52;;;;;;;10.25;5.93;;;;;;;;;;2075096;28;20041;-77
2021/12/04 06:03:12;;;;;;;7.43;5.18;;;;;;;;;;2079036;28;20026;-78
2021/12/04 06:04:31;;;;;;;9.43;5.82;;;;;;;;;;2079385;28;20027;-77
2021/12/04 06:05:50;;;;;;;9.75;4.97;;;;;;;;;;2078639;28;20034;-78
2021/12/04 06:07:09;;;;;;;7.18;5.30;;;;;;;;;;2080582;28;20033;-77
2021/12/04 06:08:28;;;;;;;11.07;5.40;;;;;;;;;;2079351;28;20038;-77
2021/12/04 06:09:47;;;;;;;9.90;5.18;;;;;;;;;;2079066;28;20034;-77
2021/12/04 06:11:06;;;;;;;8.63;5.60;;;;;;;;;;2076055;28;20473;-77
2021/12/04 06:12:25;;;;;;;9.07;5.53;;;;;;;;;;2074557;28;20116;-77
2021/12/04 06:13:44;;;;;;;7.35;5.35;;;;;;;;;;2079139;28;20029;-77
2021/12/04 06:15:03;;;;;;;7.38;5.13;;;;;;;;;;2080007;28;20059;-76
2021/12/04 06:16:23;;;;;;;9.88;5.22;;;;;;;;;;2080336;28;20482;-76
2021/12/04 06:17:42;;;;;;;8.35;5.53;;;;;;;;;;2078942;28;20045;-76
2021/12/04 06:22:41;;;;;;;9.40;5.80;;;;;;;;;;2079472;28;20033;-75
2021/12/04 06:23:59;;;;;;;5.43;4.65;;;;;;;;;;2079617;28;20026;-76
2021/12/04 06:25:20;;;;;;;9.73;5.05;;;;;;;;;;2078775;28;20038;-76
2021/12/04 06:26:39;;;;;;;9.38;5.78;;;;;;;;;;2079181;28;20033;-76
2021/12/04 06:27:58;;;;;;;6.88;5.10;;;;;;;;;;2078933;28;20025;-77
2021/12/04 06:29:16;;;;;;;7.22;5.15;;;;;;;;;;2079222;28;20034;-76
2021/12/04 06:30:37;;;;;;;5.60;4.93;;;;;;;;;;2076957;28;20526;-75
2021/12/04 06:31:56;;;;;;;10.00;5.50;;;;;;;;;;2076509;28;20029;-77
2021/12/04 06:33:18;;;;;;;8.18;5.38;;;;;;;;;;2079589;28;20502;-76
2021/12/04 06:34:37;;;;;;;5.05;3.65;;;;;;;;;;2079882;28;20484;-76
2021/12/04 06:35:56;;;;;;;8.98;5.50;;;;;;;;;;2078570;28;20045;-77
2021/12/04 06:37:15;;;;;;;11.02;5.75;;;;;;;;;;2078044;28;20030;-77
2021/12/04 06:38:34;;;;;;;7.43;4.90;;;;;;;;;;2079138;28;20498;-77
2021/12/04 06:39:54;;;;;;;8.65;5.30;;;;;;;;;;2078065;28;20022;-77
2021/12/04 06:41:12;;;;;;;9.02;5.65;;;;;;;;;;2075016;28;20029;-77
2021/12/04 06:42:31;;;;;;;7.03;5.53;;;;;;;;;;2075347;28;20021;-77
2021/12/04 06:43:51;;;;;;;5.85;5.22;;;;;;;;;;2078990;28;20033;-78
2021/12/04 06:45:11;;;;;;;10.23;5.38;;;;;;;;;;2079386;28;20045;-78
2021/12/04 06:46:30;;;;;;;7.65;4.88;;;;;;;;;;2076499;28;20204;-77
2021/12/04 06:47:58;;;;;;;6.55;5.10;;;;;;;;;;2080040;28;20025;-78
2021/12/04 06:49:24;;;;;;;6.68;4.70;;;;;;;;;;2072196;28;20037;-77
2021/12/04 06:50:50;;;;;;;5.35;4.60;;;;;;;;;;2075107;28;20527;-77
2021/12/04 06:52:31;;;;;;;9.90;5.72;;;;;;;;;;2077059;28;20519;-78
2021/12/04 06:55:14;;;;;;;8.05;5.00;;;;;;;;;;2077391;28;20025;-78
2021/12/04 06:56:42;;;;;;;8.18;4.85;;;;;;;;;;2078705;28;20025;-77
2021/12/04 06:58:01;;;;;;;8.82;4.85;;;;;;;;;;2078427;28;20021;-77
2021/12/04 06:59:25;;;;;;;8.85;4.88;;;;;;;;;;2079396;28;20022;-78
2021/12/04 07:00:44;;;;;;;5.70;4.63;;;;;;;;;;2079440;28;20026;-76
2021/12/04 07:02:03;;;;;;;7.72;5.28;;;;;;;;;;2077976;28;20029;-77
2021/12/04 07:03:22;;;;;;;6.57;4.70;;;;;;;;;;2078119;28;20033;-76
2021/12/04 07:04:41;;;;;;;9.23;4.78;;;;;;;;;;2075508;28;20056;-78
2021/12/04 07:06:01;;;;;;;7.88;5.57;;;;;;;;;;2074841;28;20425;-78
2021/12/04 07:07:19;;;;;;;8.73;5.53;;;;;;;;;;2079650;28;20048;-77
2021/12/04 07:08:38;;;;;;;8.30;4.93;;;;;;;;;;2077187;28;20509;-78
2021/12/04 07:09:57;;;;;;;7.28;5.47;;;;;;;;;;2078787;28;20033;-78
2021/12/04 07:11:16;;;;;;;6.63;4.53;;;;;;;;;;2078726;28;20037;-76
2021/12/04 07:12:35;;;;;;;5.72;4.75;;;;;;;;;;2079152;28;20030;-77
2021/12/04 07:13:54;;;;;;;7.60;4.80;;;;;;;;;;2078710;28;20512;-77
2021/12/04 07:15:13;;;;;;;8.90;4.63;;;;;;;;;;2078082;28;20021;-77
2021/12/04 07:16:33;;;;;;;8.82;4.75;;;;;;;;;;2073713;28;20034;-76
2021/12/04 07:17:51;;;;;;;8.00;4.97;;;;;;;;;;2075272;28;20017;-76
2021/12/04 07:19:10;;;;;;;7.10;4.97;;;;;;;;;;2079157;28;20049;-76
2021/12/04 07:20:29;;;;;;;7.20;5.47;;;;;;;;;;2079059;28;20041;-77
2021/12/04 07:21:52;;;;;;;7.15;4.50;;;;;;;;;;2076305;28;20041;-76
2021/12/04 07:23:11;;;;;;;6.70;4.85;;;;;;;;;;2078597;28;20037;-78
2021/12/04 07:24:32;;;;;;;11.55;5.70;;;;;;;;;;2078883;28;20030;-77
2021/12/04 07:25:51;;;;;;;7.93;4.40;;;;;;;;;;2075205;28;20029;-76
2021/12/04 07:27:10;;;;;;;6.28;4.90;;;;;;;;;;2079610;28;20029;-76
2021/12/04 07:28:28;;;;;;;7.78;4.22;;;;;;;;;;2079585;28;20173;-77
2021/12/04 07:29:47;;;;;;;9.52;4.70;;;;;;;;;;2081020;28;20041;-77
2021/12/04 07:31:06;;;;;;;6.80;4.47;;;;;;;;;;2077271;28;20022;-77
2021/12/04 07:32:25;;;;;;;6.30;4.50;;;;;;;;;;2076611;28;20041;-78
2021/12/04 07:33:44;;;;;;;8.63;4.82;;;;;;;;;;2080041;28;20424;-77
2021/12/04 07:35:03;;;;;;;6.25;4.57;;;;;;;;;;2080972;28;20502;-77
2021/12/04 07:36:22;;;;;;;7.60;4.75;;;;;;;;;;2078787;28;20037;-77
2021/12/04 07:37:41;;;;;;;7.93;4.57;;;;;;;;;;2079997;28;20025;-77
2021/12/04 07:39:01;;;;;;;6.15;4.40;;;;;;;;;;2077045;28;20017;-77
2021/12/04 07:40:20;;;;;;;9.52;4.57;;;;;;;;;;2075816;28;20025;-78
2021/12/04 07:41:42;;;;;;;5.72;4.45;;;;;;;;;;2075515;28;20045;-78
2021/12/04 07:43:01;;;;;;;8.73;4.60;;;;;;;;;;2080124;28;20029;-78
2021/12/04 07:44:19;;;;;;;6.18;4.20;;;;;;;;;;2076660;28;20029;-77
2021/12/04 07:45:39;;;;;;;6.47;4.55;;;;;;;;;;2079735;28;20160;-78
2021/12/04 07:46:58;;;;;;;12.45;4.50;;;;;;;;;;2078751;28;20108;-77
2021/12/04 07:48:17;;;;;;;6.10;4.40;;;;;;;;;;2076939;28;20041;-77
2021/12/04 07:49:37;;;;;;;9.13;5.03;;;;;;;;;;2081410;28;20136;-77
2021/12/04 07:50:57;;;;;;;6.05;4.03;;;;;;;;;;2076771;28;20033;-77
2021/12/04 07:52:16;;;;;;;11.05;4.07;;;;;;;;;;2076308;28;20021;-77
2021/12/04 07:53:35;;;;;;;7.85;4.40;;;;;;;;;;2076295;28;20552;-77
2021/12/04 07:54:54;;;;;;;8.27;4.70;;;;;;;;;;2079998;28;20116;-76
2021/12/04 07:56:16;;;;;;;10.20;4.60;;;;;;;;;;2077980;28;20420;-79
2021/12/04 07:57:35;;;;;;;9.18;4.22;;;;;;;;;;2077101;28;20026;-78
2021/12/04 07:58:54;;;;;;;6.07;4.10;;;;;;;;;;2081254;28;20465;-78
2021/12/04 08:00:14;;;;;;;6.53;4.43;;;;;;;;;;2079837;28;20033;-78
2021/12/04 08:01:42;;;;;;;5.38;4.50;;;;;;;;;;2077315;28;20127;-78
2021/12/04 08:03:01;;;;;;;7.28;4.80;;;;;;;;;;2081299;28;20057;-78
2021/12/04 08:04:20;;;;;;;6.13;4.47;;;;;;;;;;2080149;28;20033;-77
2021/12/04 08:05:39;;;;;;;4.78;4.22;;;;;;;;;;2079022;28;20041;-77
2021/12/04 08:06:58;;;;;;;7.32;4.65;;;;;;;;;;2079337;28;20033;-76
2021/12/04 08:08:17;;;;;;;4.72;4.10;;;;;;;;;;2080833;28;20041;-77
2021/12/04 08:09:36;;;;;;;6.78;4.45;;;;;;;;;;2080632;28;20030;-75
2021/12/04 08:10:55;;;;;;;5.13;4.63;;;;;;;;;;2076660;28;20029;-77
2021/12/04 08:12:14;;;;;;;6.40;4.03;;;;;;;;;;2077121;28;20041;-76
2021/12/04 08:13:33;;;;;;;5.28;3.92;;;;;;;;;;2077955;28;20029;-77
2021/12/04 08:14:53;;;;;;;10.27;4.43;;;;;;;;;;2080108;28;20597;-76
2021/12/04 08:16:12;;;;;;;5.57;4.43;;;;;;;;;;2078032;28;20025;-75
2021/12/04 08:17:31;;;;;;;5.15;4.35;;;;;;;;;;2079222;28;20487;-76
2021/12/04 08:18:53;;;;;;;4.68;4.28;;;;;;;;;;2075201;28;20457;-77
2021/12/04 08:20:13;;;;;;;6.97;4.18;;;;;;;;;;2085295;28;20041;-76
2021/12/04 08:21:34;;;;;;;5.90;4.53;;;;;;;;;;2077961;28;20187;-76
2021/12/04 08:22:53;;;;;;;5.90;4.30;;;;;;;;;;2074220;28;20409;-76
2021/12/04 08:24:12;;;;;;;6.55;4.60;;;;;;;;;;2079469;28;20386;-77
2021/12/04 08:25:31;;;;;;;6.53;4.03;;;;;;;;;;2077132;28;20120;-76
2021/12/04 08:26:51;;;;;;;6.00;4.72;;;;;;;;;;2078811;28;20057;-76
2021/12/04 08:28:10;;;;;;;6.55;4.35;;;;;;;;;;2075884;28;20041;-76
2021/12/04 08:29:29;;;;;;;4.63;3.88;;;;;;;;;;2075109;28;20061;-77
2021/12/04 08:30:48;;;;;;;5.55;4.07;;;;;;;;;;2078591;28;20443;-76
2021/12/04 08:32:07;;;;;;;5.28;4.00;;;;;;;;;;2077259;28;20025;-76
2021/12/04 08:33:27;;;;;;;5.93;4.18;;;;;;;;;;2078671;28;21356;-76
2021/12/04 08:34:46;;;;;;;7.72;3.70;;;;;;;;;;2079680;28;20112;-76
2021/12/04 08:36:05;;;;;;;6.03;4.50;;;;;;;;;;2078355;28;20033;-78
2021/12/04 08:37:24;;;;;;;6.35;4.20;;;;;;;;;;2078801;28;20022;-75
2021/12/04 08:38:47;;;;;;;6.00;4.10;;;;;;;;;;2077475;28;20055;-76
2021/12/04 08:40:10;;;;;;;5.53;4.03;;;;;;;;;;2078938;28;20029;-76
2021/12/04 08:41:30;;;;;;;5.13;4.18;;;;;;;;;;2084803;28;20029;-77
2021/12/04 08:42:49;;;;;;;6.88;4.15;;;;;;;;;;2079077;28;20436;-75
2021/12/04 08:44:08;;;;;;;6.20;3.70;;;;;;;;;;2076725;28;20037;-76
2021/12/04 08:45:28;;;;;;;9.65;4.18;;;;;;;;;;2075534;28;20025;-76
2021/12/04 08:46:47;;;;;;;6.30;4.40;;;;;;;;;;2075460;28;20038;-76
2021/12/04 08:48:07;;;;;;;7.95;4.57;;;;;;;;;;2082642;28;20037;-76
2021/12/04 08:49:29;;;;;;;5.45;4.35;;;;;;;;;;2078665;28;20470;-77
2021/12/04 08:50:48;;;;;;;5.03;3.90;;;;;;;;;;2079769;28;20510;-77
2021/12/04 08:52:08;;;;;;;5.75;4.25;;;;;;;;;;2080066;28;20034;-77
2021/12/04 08:53:27;;;;;;;7.22;4.10;;;;;;;;;;2078624;28;20042;-77
2021/12/04 08:54:47;;;;;;;5.95;4.00;;;;;;;;;;2080925;28;20691;-77
2021/12/04 08:56:06;;;;;;;5.05;4.28;;;;;;;;;;2079830;28;20029;-78
2021/12/04 08:57:25;;;;;;;7.18;4.63;;;;;;;;;;2079078;28;20034;-78
2021/12/04 08:58:43;;;;;;;7.32;4.43;;;;;;;;;;2075470;28;20029;-77
2021/12/04 09:00:05;;;;;;;3.83;3.42;;;;;;;;;;2076597;28;20026;-78
2021/12/04 09:01:25;;;;;;;6.85;4.00;;;;;;;;;;2076205;28;20030;-77
2021/12/04 09:02:45;;;;;;;5.22;4.50;;;;;;;;;;2084984;28;20037;-77